createdAt,value
2019-03-27T00:02:31.458Z,4.27
2019-03-27T00:05:04.432Z,4.33
2019-03-27T00:07:37.075Z,4.80
2019-03-27T00:10:11.298Z,4.33
2019-03-27T00:12:43.854Z,4.10
2019-03-27T00:15:18.337Z,4.40
2019-03-27T00:17:51.157Z,4.43
2019-03-27T00:20:24.083Z,4.20
2019-03-27T00:22:56.666Z,4.10
2019-03-27T00:25:29.351Z,4.60
2019-03-27T00:28:02.004Z,3.87
2019-03-27T00:30:34.818Z,4.20
2019-03-27T00:33:07.762Z,4.57
2019-03-27T00:35:40.567Z,3.50
2019-03-27T00:38:13.193Z,3.83
2019-03-27T00:40:45.850Z,3.70
2019-03-27T00:43:18.477Z,4.60
2019-03-27T00:45:51.289Z,4.23
2019-03-27T00:48:25.354Z,4.67
2019-03-27T00:50:58.188Z,5.27
2019-03-27T00:53:30.812Z,4.80
2019-03-27T00:56:03.629Z,5.57
2019-03-27T00:58:36.239Z,4.17
2019-03-27T01:01:15.115Z,4.70
2019-03-27T01:03:47.961Z,4.50
2019-03-27T01:06:20.832Z,3.77
2019-03-27T01:08:53.631Z,4.90
2019-03-27T01:11:26.356Z,3.90
2019-03-27T01:13:58.946Z,5.17
2019-03-27T01:16:31.742Z,4.13
2019-03-27T01:19:04.706Z,3.80
2019-03-27T01:21:37.584Z,4.10
2019-03-27T01:24:10.216Z,4.37
2019-03-27T01:26:42.869Z,4.20
2019-03-27T01:29:15.426Z,3.97
2019-03-27T01:31:48.258Z,4.10
2019-03-27T01:34:21.162Z,3.80
2019-03-27T01:36:54.014Z,5.00
2019-03-27T01:39:26.613Z,3.90
2019-03-27T01:41:59.473Z,3.60
2019-03-27T01:44:32.044Z,3.77
2019-03-27T01:47:04.838Z,2.73
2019-03-27T01:49:37.764Z,3.93
2019-03-27T01:52:11.020Z,3.97
2019-03-27T01:54:43.584Z,4.60
2019-03-27T01:57:16.279Z,5.63
2019-03-27T01:59:48.872Z,5.00
2019-03-27T02:02:21.522Z,6.67
2019-03-27T02:04:54.373Z,9.57
2019-03-27T02:07:27.331Z,9.63
2019-03-27T02:09:59.922Z,8.93
2019-03-27T02:12:32.633Z,9.27
2019-03-27T02:15:05.487Z,7.10
2019-03-27T02:17:38.538Z,5.10
2019-03-27T02:20:11.811Z,4.73
2019-03-27T02:22:44.618Z,5.37
2019-03-27T02:25:17.231Z,8.60
2019-03-27T02:27:49.911Z,5.93
2019-03-27T02:30:22.524Z,6.27
2019-03-27T02:32:55.465Z,5.47
2019-03-27T02:35:28.585Z,5.57
2019-03-27T02:38:01.428Z,4.90
2019-03-27T02:40:34.174Z,4.80
2019-03-27T02:43:06.898Z,4.73
2019-03-27T02:45:39.457Z,4.20
2019-03-27T02:48:14.152Z,3.97
2019-03-27T02:50:46.805Z,4.17
2019-03-27T02:53:19.498Z,4.70
2019-03-27T02:55:52.058Z,4.17
2019-03-27T02:58:24.766Z,3.40
2019-03-27T03:00:57.334Z,5.20
2019-03-27T03:03:30.450Z,5.37
2019-03-27T03:06:03.275Z,4.57
2019-03-27T03:08:36.055Z,3.73
2019-03-27T03:11:08.681Z,4.97
2019-03-27T03:13:41.633Z,4.70
2019-03-27T03:16:14.233Z,4.77
2019-03-27T03:18:47.992Z,4.73
2019-03-27T03:21:20.825Z,4.80
2019-03-27T03:23:55.033Z,4.53
2019-03-27T03:26:27.745Z,5.10
2019-03-27T03:29:00.868Z,5.27
2019-03-27T03:31:33.463Z,5.23
2019-03-27T03:34:06.481Z,6.03
2019-03-27T03:36:39.390Z,5.57
2019-03-27T03:39:12.011Z,4.57
2019-03-27T03:41:44.653Z,5.63
2019-03-27T03:44:17.458Z,8.60
2019-03-27T03:46:59.536Z,11.23
2019-03-27T03:49:24.663Z,10.87
2019-03-27T03:51:58.228Z,7.00
2019-03-27T03:54:31.163Z,7.00
2019-03-27T03:57:05.852Z,6.40
2019-03-27T03:59:40.527Z,6.83
2019-03-27T04:02:16.117Z,6.60
2019-03-27T04:04:50.681Z,8.20
2019-03-27T04:07:23.512Z,10.07
2019-03-27T04:09:56.252Z,6.80
2019-03-27T04:12:28.826Z,9.37
2019-03-27T04:15:01.472Z,8.23
2019-03-27T04:17:34.153Z,9.77
2019-03-27T04:20:07.795Z,14.77
2019-03-27T04:22:40.634Z,9.93
2019-03-27T04:25:13.634Z,9.00
2019-03-27T04:27:47.629Z,7.60
2019-03-27T04:30:20.348Z,6.20
2019-03-27T04:32:52.972Z,6.63
2019-03-27T04:35:25.612Z,6.90
2019-03-27T04:37:58.746Z,7.10
2019-03-27T04:40:31.433Z,6.77
2019-03-27T04:43:04.084Z,6.97
2019-03-27T04:45:49.205Z,6.83
2019-03-27T04:48:21.803Z,8.10
2019-03-27T04:50:54.464Z,7.37
2019-03-27T04:53:27.063Z,6.67
2019-03-27T04:56:01.189Z,7.27
2019-03-27T04:58:33.817Z,6.57
2019-03-27T05:01:06.756Z,6.07
2019-03-27T05:03:40.551Z,6.17
2019-03-27T05:06:13.184Z,6.73
2019-03-27T05:08:46.025Z,6.67
2019-03-27T05:11:18.766Z,7.57
2019-03-27T05:13:51.346Z,7.90
2019-03-27T05:16:23.999Z,7.40
2019-03-27T05:18:56.557Z,8.27
2019-03-27T05:21:29.183Z,7.47
2019-03-27T05:24:01.755Z,8.47
2019-03-27T05:26:34.697Z,8.23
2019-03-27T05:29:07.282Z,8.00
2019-03-27T05:31:40.153Z,8.00
2019-03-27T05:34:13.741Z,8.93
2019-03-27T05:36:46.637Z,8.27
2019-03-27T05:39:19.695Z,7.80
2019-03-27T05:41:52.715Z,8.23
2019-03-27T05:44:25.315Z,7.37
2019-03-27T05:46:58.086Z,8.87
2019-03-27T05:49:30.677Z,9.50
2019-03-27T05:52:03.484Z,8.13
2019-03-27T05:54:36.127Z,7.87
2019-03-27T05:57:08.753Z,9.10
2019-03-27T05:59:41.400Z,8.17
2019-03-27T06:02:14.123Z,6.83
2019-03-27T06:04:46.789Z,8.07
2019-03-27T06:07:19.359Z,8.33
2019-03-27T06:09:52.015Z,7.40
2019-03-27T06:12:24.631Z,9.30
2019-03-27T06:14:57.240Z,7.70
2019-03-27T06:17:29.898Z,8.67
2019-03-27T06:20:02.519Z,8.20
2019-03-27T06:22:35.410Z,7.27
2019-03-27T06:25:08.202Z,6.60
2019-03-27T06:27:40.934Z,6.53
2019-03-27T06:30:16.035Z,6.90
2019-03-27T06:32:48.648Z,6.73
2019-03-27T06:35:21.812Z,6.83
2019-03-27T06:37:54.566Z,11.10
2019-03-27T06:40:28.498Z,14.20
2019-03-27T06:43:01.547Z,8.10
2019-03-27T06:45:34.134Z,7.77
2019-03-27T06:48:07.115Z,11.97
2019-03-27T06:50:39.712Z,6.53
2019-03-27T06:53:12.684Z,7.50
2019-03-27T06:55:45.394Z,7.07
2019-03-27T06:58:18.088Z,5.60
2019-03-27T07:00:50.693Z,6.60
2019-03-27T07:03:23.344Z,5.97
2019-03-27T07:05:55.919Z,7.50
2019-03-27T07:08:28.944Z,7.73
2019-03-27T07:11:01.738Z,6.97
2019-03-27T07:13:34.542Z,6.30
2019-03-27T07:16:07.238Z,7.00
2019-03-27T07:18:40.712Z,6.03
2019-03-27T07:21:13.579Z,5.80
2019-03-27T07:23:46.602Z,6.00
2019-03-27T07:26:19.610Z,6.20
2019-03-27T07:28:52.252Z,7.23
2019-03-27T07:31:24.873Z,5.77
2019-03-27T07:33:57.711Z,5.73
2019-03-27T07:36:30.362Z,5.83
2019-03-27T07:39:11.056Z,7.20
2019-03-27T07:41:37.612Z,9.37
2019-03-27T07:44:10.498Z,8.53
2019-03-27T07:46:43.070Z,6.53
2019-03-27T07:49:15.951Z,6.03
2019-03-27T07:51:48.624Z,7.27
2019-03-27T07:54:21.437Z,5.83
2019-03-27T07:56:54.265Z,5.63
2019-03-27T07:59:27.043Z,7.00
2019-03-27T08:02:00.068Z,8.10
2019-03-27T08:04:32.651Z,6.10
2019-03-27T08:07:05.276Z,4.97
2019-03-27T08:09:38.020Z,4.30
2019-03-27T08:12:10.940Z,5.87
2019-03-27T08:14:43.898Z,4.90
2019-03-27T08:17:16.596Z,5.50
2019-03-27T08:19:49.662Z,3.53
2019-03-27T08:22:23.394Z,4.03
2019-03-27T08:24:56.240Z,3.30
2019-03-27T08:27:29.058Z,3.40
2019-03-27T08:30:01.793Z,2.87
2019-03-27T08:32:37.427Z,3.90
2019-03-27T08:35:10.038Z,3.20
2019-03-27T08:37:42.939Z,4.40
2019-03-27T08:40:16.621Z,3.97
2019-03-27T08:42:49.583Z,3.50
2019-03-27T08:45:22.399Z,2.90
2019-03-27T08:47:55.016Z,3.33
2019-03-27T08:50:27.765Z,3.43
2019-03-27T08:53:00.485Z,3.77
2019-03-27T08:55:33.133Z,3.00
2019-03-27T08:58:06.272Z,3.23
2019-03-27T09:00:57.263Z,2.93
2019-03-27T09:03:29.824Z,3.20
2019-03-27T09:06:02.883Z,3.17
2019-03-27T09:08:35.489Z,3.97
2019-03-27T09:11:08.349Z,3.00
2019-03-27T09:13:41.224Z,3.57
2019-03-27T09:16:14.131Z,2.40
2019-03-27T09:18:46.698Z,2.77
2019-03-27T09:21:19.497Z,2.60
2019-03-27T09:23:52.119Z,2.67
2019-03-27T09:26:25.055Z,3.47
2019-03-27T09:28:58.692Z,3.93
2019-03-27T09:31:43.969Z,4.03
2019-03-27T09:34:05.580Z,3.90
2019-03-27T09:36:38.435Z,3.73
2019-03-27T09:39:12.583Z,4.63
2019-03-27T09:41:45.440Z,2.90
2019-03-27T09:44:18.511Z,3.77
2019-03-27T09:46:51.255Z,2.60
2019-03-27T09:49:23.893Z,3.03
2019-03-27T09:51:57.698Z,3.13
2019-03-27T09:54:30.309Z,4.53
2019-03-27T09:57:03.756Z,6.07
2019-03-27T09:59:36.362Z,4.23
2019-03-27T10:02:09.212Z,5.23
2019-03-27T10:04:41.827Z,5.87
2019-03-27T10:07:14.701Z,3.00
2019-03-27T10:09:50.204Z,5.27
2019-03-27T10:12:21.664Z,4.07
2019-03-27T10:14:54.607Z,2.60
2019-03-27T10:17:27.351Z,2.73
2019-03-27T10:20:03.523Z,3.40
2019-03-27T10:22:34.565Z,3.03
2019-03-27T10:25:08.563Z,2.70
2019-03-27T10:27:41.253Z,4.43
2019-03-27T10:30:14.525Z,3.23
2019-03-27T10:32:47.168Z,3.60
2019-03-27T10:35:22.516Z,4.67
2019-03-27T10:37:55.469Z,3.07
2019-03-27T10:40:28.042Z,2.60
2019-03-27T10:43:00.819Z,2.67
2019-03-27T10:45:33.651Z,2.90
2019-03-27T10:48:06.491Z,3.80
2019-03-27T10:50:39.113Z,3.27
2019-03-27T10:53:14.516Z,2.80
2019-03-27T10:55:48.493Z,3.80
2019-03-27T10:58:21.329Z,4.00
2019-03-27T11:00:54.264Z,3.73
2019-03-27T11:03:27.283Z,3.47
2019-03-27T11:05:59.959Z,2.53
2019-03-27T11:08:32.652Z,2.13
2019-03-27T11:11:05.286Z,2.47
2019-03-27T11:13:38.319Z,2.30
2019-03-27T11:16:11.148Z,2.27
2019-03-27T11:18:44.090Z,2.03
2019-03-27T11:21:16.690Z,2.07
2019-03-27T11:23:49.572Z,2.27
2019-03-27T11:26:22.124Z,2.30
2019-03-27T11:28:55.117Z,2.70
2019-03-27T11:31:27.700Z,2.63
2019-03-27T11:34:00.396Z,2.10
2019-03-27T11:36:35.213Z,2.03
2019-03-27T11:39:12.393Z,2.40
2019-03-27T11:41:44.973Z,2.53
2019-03-27T11:44:17.676Z,2.63
2019-03-27T11:46:50.359Z,2.17
2019-03-27T11:49:23.028Z,2.33
2019-03-27T11:51:55.587Z,2.10
2019-03-27T11:54:28.577Z,2.70
2019-03-27T11:57:01.225Z,2.40
2019-03-27T11:59:33.854Z,2.10
2019-03-27T12:02:09.623Z,2.20
2019-03-27T12:04:42.470Z,1.97
2019-03-27T12:07:16.137Z,2.60
2019-03-27T12:09:48.833Z,1.30
2019-03-27T12:12:21.432Z,2.37
2019-03-27T12:14:54.173Z,4.10
2019-03-27T12:17:26.770Z,2.83
2019-03-27T12:19:59.674Z,2.67
2019-03-27T12:22:32.431Z,3.20
2019-03-27T12:25:06.966Z,2.47
2019-03-27T12:27:42.284Z,6.00
2019-03-27T12:30:15.103Z,3.27
2019-03-27T12:32:49.178Z,4.60
2019-03-27T12:35:22.013Z,3.53
2019-03-27T12:37:54.863Z,2.90
2019-03-27T12:43:06.515Z,2.10
2019-03-27T12:45:39.137Z,3.17
2019-03-27T12:48:14.288Z,2.43
2019-03-27T12:50:46.671Z,1.60
2019-03-27T12:53:19.488Z,3.57
2019-03-27T12:55:52.158Z,2.17
2019-03-27T12:58:24.890Z,3.00
2019-03-27T13:00:57.552Z,2.57
2019-03-27T13:03:30.509Z,2.50
2019-03-27T13:06:03.157Z,3.95
2019-03-27T13:08:39.121Z,2.85
2019-03-27T13:11:11.785Z,2.47
2019-03-27T13:13:44.486Z,2.98
2019-03-27T13:16:17.124Z,2.72
2019-03-27T13:18:49.946Z,2.40
2019-03-27T13:21:26.584Z,1.80
2019-03-27T13:23:56.907Z,2.02
2019-03-27T13:26:29.577Z,2.25
2019-03-27T13:29:02.266Z,2.15
2019-03-27T13:31:34.878Z,2.87
2019-03-27T13:34:08.082Z,2.40
2019-03-27T13:36:45.827Z,3.00
2019-03-27T13:39:18.598Z,3.52
2019-03-27T13:41:51.232Z,3.00
2019-03-27T13:44:36.382Z,6.25
2019-03-27T13:46:58.450Z,3.20
2019-03-27T13:49:31.654Z,2.42
2019-03-27T13:52:04.262Z,4.42
2019-03-27T13:54:37.131Z,2.90
2019-03-27T13:57:09.728Z,3.72
2019-03-27T13:59:42.438Z,3.95
2019-03-27T14:02:15.125Z,2.70
2019-03-27T14:04:47.993Z,3.10
2019-03-27T14:07:20.601Z,4.97
2019-03-27T14:09:53.164Z,3.55
2019-03-27T14:12:25.835Z,3.35
2019-03-27T14:14:59.747Z,4.30
2019-03-27T14:17:32.354Z,2.58
2019-03-27T14:20:06.087Z,2.62
2019-03-27T14:22:39.686Z,3.17
2019-03-27T14:25:14.210Z,3.00
2019-03-27T14:27:46.814Z,4.58
2019-03-27T14:30:51.458Z,4.62
2019-03-27T14:33:24.494Z,2.98
2019-03-27T14:36:03.130Z,5.95
2019-03-27T14:38:35.728Z,5.60
2019-03-27T14:41:08.682Z,3.40
2019-03-27T14:43:41.279Z,2.90
2019-03-27T14:46:14.154Z,4.00
2019-03-27T14:48:46.757Z,4.05
2019-03-27T14:51:19.928Z,6.12
2019-03-27T14:53:52.561Z,4.12
2019-03-27T14:56:25.299Z,3.90
2019-03-27T14:58:57.896Z,5.60
2019-03-27T15:01:30.963Z,4.28
2019-03-27T15:04:03.596Z,4.60
2019-03-27T15:06:36.277Z,4.70
2019-03-27T15:09:10.398Z,4.85
2019-03-27T15:11:43.208Z,3.33
2019-03-27T15:14:15.797Z,5.17
2019-03-27T15:16:48.572Z,3.92
2019-03-27T15:19:21.485Z,4.40
2019-03-27T15:21:54.968Z,4.45
2019-03-27T15:24:27.680Z,3.70
2019-03-27T15:27:00.542Z,4.45
2019-03-27T15:29:33.106Z,4.42
2019-03-27T15:32:06.295Z,5.28
2019-03-27T15:34:38.938Z,6.25
2019-03-27T15:37:11.972Z,5.62
2019-03-27T15:39:44.537Z,5.62
2019-03-27T15:42:17.432Z,5.08
2019-03-27T15:44:50.090Z,3.80
2019-03-27T15:47:23.008Z,4.53
2019-03-27T15:49:55.660Z,6.45
2019-03-27T15:52:36.510Z,5.72
2019-03-27T15:55:03.195Z,6.33
2019-03-27T15:57:36.083Z,5.10
2019-03-27T16:00:09.748Z,5.43
2019-03-27T16:02:43.115Z,6.50
2019-03-27T16:05:15.809Z,6.37
2019-03-27T16:07:48.735Z,5.53
2019-03-27T16:10:21.297Z,7.73
2019-03-27T16:12:54.343Z,6.07
2019-03-27T16:15:26.930Z,5.30
2019-03-27T16:17:59.872Z,7.40
2019-03-27T16:20:32.533Z,7.27
2019-03-27T16:23:05.751Z,6.47
2019-03-27T16:25:38.555Z,6.60
2019-03-27T16:28:11.735Z,6.73
2019-03-27T16:30:44.402Z,9.23
2019-03-27T16:33:17.018Z,7.53
2019-03-27T16:35:49.635Z,8.80
2019-03-27T16:38:22.693Z,8.70
2019-03-27T16:40:55.299Z,7.93
2019-03-27T16:43:27.973Z,8.90
2019-03-27T16:46:00.593Z,7.80
2019-03-27T16:48:35.551Z,9.13
2019-03-27T16:51:08.177Z,8.80
2019-03-27T16:53:41.183Z,9.70
2019-03-27T16:56:14.265Z,10.13
2019-03-27T16:58:46.883Z,7.40
2019-03-27T17:01:19.478Z,8.60
2019-03-27T17:03:52.429Z,8.60
2019-03-27T17:06:25.063Z,9.07
2019-03-27T17:08:57.881Z,9.57
2019-03-27T17:11:31.891Z,9.67
2019-03-27T17:14:04.547Z,8.70
2019-03-27T17:16:37.154Z,9.60
2019-03-27T17:19:09.852Z,9.70
2019-03-27T17:21:42.473Z,12.47
2019-03-27T17:24:17.533Z,12.17
2019-03-27T17:26:50.282Z,11.33
2019-03-27T17:29:25.930Z,12.83
2019-03-27T17:31:58.530Z,12.03
2019-03-27T17:34:32.746Z,13.60
2019-03-27T17:37:05.384Z,15.50
2019-03-27T17:39:38.356Z,12.73
2019-03-27T17:42:11.098Z,12.90
2019-03-27T17:44:44.020Z,10.40
2019-03-27T17:47:16.639Z,14.03
2019-03-27T17:49:49.479Z,10.87
2019-03-27T17:52:23.258Z,10.13
2019-03-27T17:54:56.260Z,16.20
2019-03-27T17:57:28.996Z,15.33
2019-03-27T18:00:01.660Z,14.27
2019-03-27T18:02:35.916Z,17.90
2019-03-27T18:05:08.959Z,15.57
2019-03-27T18:07:41.631Z,14.97
2019-03-27T18:10:22.789Z,13.83
2019-03-27T18:12:55.415Z,12.00
2019-03-27T18:15:28.263Z,12.23
2019-03-27T18:18:01.024Z,29.07
2019-03-27T18:20:33.928Z,21.53
2019-03-27T18:23:08.698Z,20.60
2019-03-27T18:25:44.123Z,15.10
2019-03-27T18:28:17.010Z,12.23
2019-03-27T18:30:49.975Z,18.83
2019-03-27T18:33:22.670Z,20.50
2019-03-27T18:35:58.010Z,21.07
2019-03-27T18:38:30.791Z,20.43
2019-03-27T18:41:03.766Z,15.87
2019-03-27T18:43:36.513Z,18.87
2019-03-27T18:46:09.436Z,18.03
2019-03-27T18:48:42.073Z,14.17
2019-03-27T18:51:15.023Z,13.60
2019-03-27T18:53:59.072Z,11.33
2019-03-27T18:56:31.116Z,9.83
2019-03-27T18:59:03.876Z,12.17
2019-03-27T19:01:36.908Z,10.07
2019-03-27T19:04:09.578Z,9.20
2019-03-27T19:06:42.557Z,11.23
2019-03-27T19:09:15.259Z,12.13
2019-03-27T19:11:48.079Z,12.27
2019-03-27T19:14:22.010Z,7.77
2019-03-27T19:16:54.928Z,9.73
2019-03-27T19:19:27.602Z,10.23
2019-03-27T19:22:01.064Z,11.43
2019-03-27T19:24:34.195Z,11.83
2019-03-27T19:27:07.346Z,12.17
2019-03-27T19:29:44.957Z,12.37
2019-03-27T19:32:18.503Z,11.80
2019-03-27T19:34:51.299Z,10.47
2019-03-27T19:37:24.455Z,10.23
2019-03-27T19:40:01.147Z,10.27
2019-03-27T19:42:34.319Z,9.57
2019-03-27T19:45:07.821Z,9.00
2019-03-27T19:47:40.904Z,7.90
2019-03-27T19:50:13.752Z,9.80
2019-03-27T19:52:46.804Z,18.77
2019-03-27T19:55:19.526Z,11.33
2019-03-27T19:57:52.292Z,12.73
2019-03-27T20:00:26.043Z,14.23
2019-03-27T20:02:59.062Z,14.90
2019-03-27T20:05:31.706Z,15.60
2019-03-27T20:08:04.728Z,11.33
2019-03-27T20:10:37.549Z,13.50
2019-03-27T20:13:10.767Z,20.63
2019-03-27T20:15:43.858Z,19.87
2019-03-27T20:18:21.855Z,16.30
2019-03-27T20:20:54.840Z,15.77
2019-03-27T20:23:27.544Z,19.83
2019-03-27T20:26:00.212Z,17.40
2019-03-27T20:28:33.435Z,17.50
2019-03-27T20:31:06.106Z,15.20
2019-03-27T20:33:39.098Z,17.83
2019-03-27T20:36:13.146Z,16.97
2019-03-27T20:38:46.492Z,16.40
2019-03-27T20:41:19.320Z,19.13
2019-03-27T20:43:52.690Z,16.50
2019-03-27T20:46:29.008Z,13.90
2019-03-27T20:48:59.819Z,15.30
2019-03-27T20:51:33.594Z,15.37
2019-03-27T20:54:06.506Z,13.07
2019-03-27T20:56:41.431Z,11.37
2019-03-27T20:59:18.242Z,13.43
2019-03-27T21:01:50.060Z,12.97
2019-03-27T21:04:22.854Z,13.60
2019-03-27T21:06:55.603Z,12.37
2019-03-27T21:09:28.597Z,11.77
2019-03-27T21:12:01.653Z,14.20
2019-03-27T21:14:34.938Z,14.17
2019-03-27T21:17:10.310Z,14.47
2019-03-27T21:19:43.344Z,13.13
2019-03-27T21:22:16.070Z,12.83
2019-03-27T21:24:48.989Z,14.40
2019-03-27T21:27:21.679Z,14.97
2019-03-27T21:29:54.964Z,18.20
2019-03-27T21:32:27.923Z,16.70
2019-03-27T21:35:00.829Z,15.17
2019-03-27T21:37:33.566Z,13.60
2019-03-27T21:40:08.011Z,13.23
2019-03-27T21:42:43.127Z,17.20
2019-03-27T21:45:15.974Z,12.57
2019-03-27T21:47:48.608Z,14.63
2019-03-27T21:50:22.562Z,14.30
2019-03-27T21:53:00.774Z,13.10
2019-03-27T21:55:41.920Z,14.13
2019-03-27T21:58:04.172Z,12.07
2019-03-27T22:00:41.779Z,11.53
2019-03-27T22:03:14.509Z,11.73
2019-03-27T22:05:47.381Z,10.73
2019-03-27T22:08:20.110Z,11.77
2019-03-27T22:10:52.805Z,12.83
2019-03-27T22:13:25.475Z,13.30
2019-03-27T22:16:03.675Z,13.50
2019-03-27T22:18:36.282Z,11.30
2019-03-27T22:21:09.264Z,13.53
2019-03-27T22:23:43.889Z,14.67
2019-03-27T22:26:16.610Z,13.43
2019-03-27T22:28:49.238Z,13.60
2019-03-27T22:31:22.244Z,14.67
2019-03-27T22:33:54.849Z,15.23
2019-03-27T22:36:27.519Z,15.03
2019-03-27T22:39:00.129Z,13.53
2019-03-27T22:41:34.994Z,9.10
2019-03-27T22:44:07.715Z,12.57
2019-03-27T22:46:41.202Z,12.27
2019-03-27T22:49:13.919Z,12.07
2019-03-27T22:51:46.838Z,9.67
2019-03-27T22:54:19.451Z,12.40
2019-03-27T22:56:52.343Z,13.57
2019-03-27T22:59:25.089Z,12.67
2019-03-27T23:01:58.391Z,10.63
2019-03-27T23:04:31.262Z,13.67
2019-03-27T23:07:04.076Z,10.40
2019-03-27T23:09:36.792Z,14.57
2019-03-27T23:12:09.722Z,13.20
2019-03-27T23:14:42.391Z,12.73
2019-03-27T23:17:15.499Z,11.80
2019-03-27T23:19:51.410Z,10.43
2019-03-27T23:22:25.972Z,11.23
2019-03-27T23:24:58.568Z,11.83
2019-03-27T23:27:31.649Z,12.23
2019-03-27T23:30:05.385Z,12.37
2019-03-27T23:32:38.721Z,13.03
2019-03-27T23:35:11.859Z,12.40
2019-03-27T23:37:47.033Z,10.37
2019-03-27T23:40:19.714Z,11.90
2019-03-27T23:42:52.425Z,13.73
2019-03-27T23:45:25.142Z,13.30
2019-03-27T23:47:58.404Z,11.10
2019-03-27T23:50:31.099Z,10.80
2019-03-27T23:53:04.938Z,11.27
2019-03-27T23:55:38.517Z,10.80
2019-03-27T23:58:11.291Z,12.33
